sensor_id;sensor_type;location;lat;lon;timestamp;pressure;altitude;pressure_sealevel;temperature;humidity
11172;BME280;5642;50.830;12.082;2023-08-24T00:01:42;99715.47;;;19.81;38.75
11172;BME280;5642;50.830;12.082;2023-08-24T00:04:09;99693.31;;;19.68;39.02
11172;BME280;5642;50.830;12.082;2023-08-24T00:06:36;99712.25;;;19.76;39.16
11172;BME280;5642;50.830;12.082;2023-08-24T00:09:03;99708.50;;;19.66;39.10
11172;BME280;5642;50.830;12.082;2023-08-24T00:11:31;99715.69;;;19.64;39.23
11172;BME280;5642;50.830;12.082;2023-08-24T00:13:57;99685.16;;;19.42;39.35
11172;BME280;5642;50.830;12.082;2023-08-24T00:16:23;99717.91;;;19.57;39.24
11172;BME280;5642;50.830;12.082;2023-08-24T00:18:49;99712.03;;;19.52;39.51
11172;BME280;5642;50.830;12.082;2023-08-24T00:21:16;99719.91;;;19.53;39.23
11172;BME280;5642;50.830;12.082;2023-08-24T00:23:49;99690.19;;;19.33;39.53
11172;BME280;5642;50.830;12.082;2023-08-24T00:26:16;99727.38;;;19.47;39.59
11172;BME280;5642;50.830;12.082;2023-08-24T00:28:46;99717.88;;;19.43;39.50
11172;BME280;5642;50.830;12.082;2023-08-24T00:31:13;99709.28;;;19.39;39.35
11172;BME280;5642;50.830;12.082;2023-08-24T00:33:40;99706.97;;;19.33;39.78
11172;BME280;5642;50.830;12.082;2023-08-24T00:36:07;99703.56;;;19.31;39.72
11172;BME280;5642;50.830;12.082;2023-08-24T00:38:33;99702.13;;;19.26;39.74
11172;BME280;5642;50.830;12.082;2023-08-24T00:40:59;99686.88;;;19.15;39.93
11172;BME280;5642;50.830;12.082;2023-08-24T00:43:26;99696.81;;;19.26;39.89
11172;BME280;5642;50.830;12.082;2023-08-24T00:45:59;99701.00;;;19.30;39.97
11172;BME280;5642;50.830;12.082;2023-08-24T00:48:28;99700.47;;;19.25;40.02
11172;BME280;5642;50.830;12.082;2023-08-24T00:51:00;99707.44;;;19.26;40.05
11172;BME280;5642;50.830;12.082;2023-08-24T00:53:28;99703.97;;;19.25;39.85
11172;BME280;5642;50.830;12.082;2023-08-24T00:55:55;99702.25;;;19.24;40.15
11172;BME280;5642;50.830;12.082;2023-08-24T00:58:21;99706.03;;;19.20;40.07
11172;BME280;5642;50.830;12.082;2023-08-24T01:00:51;99705.09;;;19.21;40.25
11172;BME280;5642;50.830;12.082;2023-08-24T01:03:18;99696.47;;;19.17;40.09
11172;BME280;5642;50.830;12.082;2023-08-24T01:05:44;99681.28;;;19.05;40.17
11172;BME280;5642;50.830;12.082;2023-08-24T01:08:11;99666.97;;;18.94;40.42
11172;BME280;5642;50.830;12.082;2023-08-24T01:10:43;99706.88;;;19.21;40.50
11172;BME280;5642;50.830;12.082;2023-08-24T01:13:17;99708.78;;;19.18;40.33
11172;BME280;5642;50.830;12.082;2023-08-24T01:15:52;99712.66;;;19.13;40.30
11172;BME280;5642;50.830;12.082;2023-08-24T01:18:22;99715.53;;;19.10;40.25
11172;BME280;5642;50.830;12.082;2023-08-24T01:20:53;99698.75;;;18.95;40.24
11172;BME280;5642;50.830;12.082;2023-08-24T01:23:34;99699.38;;;18.99;40.30
11172;BME280;5642;50.830;12.082;2023-08-24T01:26:11;99704.63;;;19.00;40.60
11172;BME280;5642;50.830;12.082;2023-08-24T01:28:38;99705.75;;;18.96;40.66
11172;BME280;5642;50.830;12.082;2023-08-24T01:31:05;99703.47;;;18.90;40.68
11172;BME280;5642;50.830;12.082;2023-08-24T01:33:31;99656.72;;;18.59;40.65
11172;BME280;5642;50.830;12.082;2023-08-24T01:35:58;99715.78;;;18.91;40.79
11172;BME280;5642;50.830;12.082;2023-08-24T01:38:24;99715.78;;;18.91;40.63
11172;BME280;5642;50.830;12.082;2023-08-24T01:43:33;99700.69;;;18.77;40.69
11172;BME280;5642;50.830;12.082;2023-08-24T01:46:04;99693.50;;;18.80;40.84
11172;BME280;5642;50.830;12.082;2023-08-24T01:48:31;99700.78;;;18.76;40.80
11172;BME280;5642;50.830;12.082;2023-08-24T01:50:58;99700.13;;;18.72;40.82
11172;BME280;5642;50.830;12.082;2023-08-24T01:53:27;99700.22;;;18.71;40.92
11172;BME280;5642;50.830;12.082;2023-08-24T01:55:53;99629.53;;;18.26;40.94
11172;BME280;5642;50.830;12.082;2023-08-24T01:58:20;99698.03;;;18.63;40.97
11172;BME280;5642;50.830;12.082;2023-08-24T02:00:46;99698.22;;;18.60;41.04
11172;BME280;5642;50.830;12.082;2023-08-24T02:03:12;99687.78;;;18.57;41.16
11172;BME280;5642;50.830;12.082;2023-08-24T02:05:38;99687.63;;;18.60;41.19
11172;BME280;5642;50.830;12.082;2023-08-24T02:08:05;99675.63;;;18.53;41.22
11172;BME280;5642;50.830;12.082;2023-08-24T02:10:31;99687.69;;;18.59;41.43
11172;BME280;5642;50.830;12.082;2023-08-24T02:12:57;99682.56;;;18.56;41.47
11172;BME280;5642;50.830;12.082;2023-08-24T02:15:23;99677.41;;;18.53;41.38
11172;BME280;5642;50.830;12.082;2023-08-24T02:17:49;99637.13;;;18.32;41.43
11172;BME280;5642;50.830;12.082;2023-08-24T02:20:15;99677.34;;;18.54;41.37
11172;BME280;5642;50.830;12.082;2023-08-24T02:22:41;99650.94;;;18.37;41.49
11172;BME280;5642;50.830;12.082;2023-08-24T02:25:09;99674.69;;;18.54;41.69
11172;BME280;5642;50.830;12.082;2023-08-24T02:27:35;99657.88;;;18.39;41.69
11172;BME280;5642;50.830;12.082;2023-08-24T02:30:01;99666.22;;;18.48;41.78
11172;BME280;5642;50.830;12.082;2023-08-24T02:32:27;99643.09;;;18.35;41.78
11172;BME280;5642;50.830;12.082;2023-08-24T02:34:53;99655.97;;;18.42;41.77
11172;BME280;5642;50.830;12.082;2023-08-24T02:37:19;99669.72;;;18.48;41.51
11172;BME280;5642;50.830;12.082;2023-08-24T02:39:46;99632.94;;;18.28;41.95
11172;BME280;5642;50.830;12.082;2023-08-24T02:42:12;99658.63;;;18.42;41.86
11172;BME280;5642;50.830;12.082;2023-08-24T02:44:38;99664.88;;;18.40;41.83
11172;BME280;5642;50.830;12.082;2023-08-24T02:47:04;99666.56;;;18.42;41.92
11172;BME280;5642;50.830;12.082;2023-08-24T02:49:30;99672.75;;;18.42;41.79
11172;BME280;5642;50.830;12.082;2023-08-24T02:51:56;99668.66;;;18.36;41.97
11172;BME280;5642;50.830;12.082;2023-08-24T02:54:22;99666.78;;;18.38;42.07
11172;BME280;5642;50.830;12.082;2023-08-24T02:56:48;99667.03;;;18.34;42.13
11172;BME280;5642;50.830;12.082;2023-08-24T02:59:14;99672.16;;;18.37;42.09
11172;BME280;5642;50.830;12.082;2023-08-24T03:01:40;99619.22;;;18.06;42.07
11172;BME280;5642;50.830;12.082;2023-08-24T03:04:07;99644.66;;;18.24;41.93
11172;BME280;5642;50.830;12.082;2023-08-24T03:06:33;99625.78;;;18.14;42.23
11172;BME280;5642;50.830;12.082;2023-08-24T03:09:00;99667.03;;;18.34;42.25
11172;BME280;5642;50.830;12.082;2023-08-24T03:11:27;99663.63;;;18.32;42.23
11172;BME280;5642;50.830;12.082;2023-08-24T03:13:53;99655.94;;;18.27;42.36
11172;BME280;5642;50.830;12.082;2023-08-24T03:16:20;99673.31;;;18.33;42.50
11172;BME280;5642;50.830;12.082;2023-08-24T03:18:47;99595.25;;;17.93;42.42
11172;BME280;5642;50.830;12.082;2023-08-24T03:21:13;99639.72;;;18.18;42.38
11172;BME280;5642;50.830;12.082;2023-08-24T03:23:39;99645.03;;;18.18;42.49
11172;BME280;5642;50.830;12.082;2023-08-24T03:26:05;99665.53;;;18.30;42.63
11172;BME280;5642;50.830;12.082;2023-08-24T03:28:32;99665.34;;;18.33;42.61
11172;BME280;5642;50.830;12.082;2023-08-24T03:31:00;99653.47;;;18.24;42.84
11172;BME280;5642;50.830;12.082;2023-08-24T03:33:27;99649.13;;;18.23;42.44
11172;BME280;5642;50.830;12.082;2023-08-24T03:35:56;99646.38;;;18.25;42.65
11172;BME280;5642;50.830;12.082;2023-08-24T03:38:22;99639.91;;;18.15;42.60
11172;BME280;5642;50.830;12.082;2023-08-24T03:40:48;99665.59;;;18.28;42.65
11172;BME280;5642;50.830;12.082;2023-08-24T03:43:15;99645.78;;;18.20;42.74
11172;BME280;5642;50.830;12.082;2023-08-24T03:45:42;99641.25;;;18.22;42.67
11172;BME280;5642;50.830;12.082;2023-08-24T03:48:10;99639.03;;;18.14;42.75
11172;BME280;5642;50.830;12.082;2023-08-24T03:50:36;99634.88;;;18.10;42.91
11172;BME280;5642;50.830;12.082;2023-08-24T03:53:06;99652.88;;;18.19;42.93
11172;BME280;5642;50.830;12.082;2023-08-24T03:55:32;99646.16;;;18.14;42.87
11172;BME280;5642;50.830;12.082;2023-08-24T03:57:59;99636.84;;;18.07;42.99
11172;BME280;5642;50.830;12.082;2023-08-24T04:00:37;99649.41;;;18.19;42.99
11172;BME280;5642;50.830;12.082;2023-08-24T04:03:04;99610.38;;;17.91;42.96
11172;BME280;5642;50.830;12.082;2023-08-24T04:05:30;99642.84;;;18.10;42.88
11172;BME280;5642;50.830;12.082;2023-08-24T04:07:59;99623.00;;;18.02;43.20
11172;BME280;5642;50.830;12.082;2023-08-24T04:10:30;99652.06;;;18.19;43.09
11172;BME280;5642;50.830;12.082;2023-08-24T04:12:58;99656.59;;;18.17;43.10
11172;BME280;5642;50.830;12.082;2023-08-24T04:15:24;99659.47;;;18.12;43.05
11172;BME280;5642;50.830;12.082;2023-08-24T04:17:51;99647.28;;;18.10;43.16
11172;BME280;5642;50.830;12.082;2023-08-24T04:20:18;99649.16;;;18.08;43.06
11172;BME280;5642;50.830;12.082;2023-08-24T04:22:44;99659.81;;;18.22;43.16
11172;BME280;5642;50.830;12.082;2023-08-24T04:25:10;99648.03;;;18.12;43.18
11172;BME280;5642;50.830;12.082;2023-08-24T04:27:38;99670.81;;;18.30;43.35
11172;BME280;5642;50.830;12.082;2023-08-24T04:30:04;99648.72;;;18.15;43.14
11172;BME280;5642;50.830;12.082;2023-08-24T04:32:31;99667.31;;;18.29;42.94
11172;BME280;5642;50.830;12.082;2023-08-24T04:34:59;99676.63;;;18.36;43.05
11172;BME280;5642;50.830;12.082;2023-08-24T04:37:27;99676.44;;;18.39;43.02
11172;BME280;5642;50.830;12.082;2023-08-24T04:39:53;99670.16;;;18.40;42.85
11172;BME280;5642;50.830;12.082;2023-08-24T04:42:19;99669.06;;;18.45;42.96
11172;BME280;5642;50.830;12.082;2023-08-24T04:44:47;99641.28;;;18.36;42.98
11172;BME280;5642;50.830;12.082;2023-08-24T04:47:15;99662.25;;;18.55;42.93
11172;BME280;5642;50.830;12.082;2023-08-24T04:49:44;99657.66;;;18.58;42.97
11172;BME280;5642;50.830;12.082;2023-08-24T04:52:10;99667.03;;;18.64;43.01
11172;BME280;5642;50.830;12.082;2023-08-24T04:54:36;99657.19;;;18.66;43.00
11172;BME280;5642;50.830;12.082;2023-08-24T04:57:03;99660.81;;;18.79;42.94
11172;BME280;5642;50.830;12.082;2023-08-24T04:59:31;99664.94;;;19.26;42.61
11172;BME280;5642;50.830;12.082;2023-08-24T05:01:57;99649.06;;;19.93;41.51
11172;BME280;5642;50.830;12.082;2023-08-24T05:04:24;99661.56;;;20.83;40.75
11172;BME280;5642;50.830;12.082;2023-08-24T05:06:50;99658.84;;;21.59;40.00
11172;BME280;5642;50.830;12.082;2023-08-24T05:09:19;99658.59;;;22.34;38.97
11172;BME280;5642;50.830;12.082;2023-08-24T05:11:46;99643.69;;;22.77;38.71
11172;BME280;5642;50.830;12.082;2023-08-24T05:14:12;99642.47;;;23.03;38.83
11172;BME280;5642;50.830;12.082;2023-08-24T05:16:40;99595.97;;;22.95;38.46
11172;BME280;5642;50.830;12.082;2023-08-24T05:19:06;99642.16;;;23.73;38.26
11172;BME280;5642;50.830;12.082;2023-08-24T05:21:34;99635.41;;;24.33;38.09
11172;BME280;5642;50.830;12.082;2023-08-24T05:24:08;99633.31;;;24.78;37.23
11172;BME280;5642;50.830;12.082;2023-08-24T05:26:38;99648.22;;;24.92;37.76
11172;BME280;5642;50.830;12.082;2023-08-24T05:29:05;99641.03;;;24.72;38.14
11172;BME280;5642;50.830;12.082;2023-08-24T05:31:56;99649.13;;;24.40;38.78
11172;BME280;5642;50.830;12.082;2023-08-24T05:34:23;99647.50;;;24.28;39.09
11172;BME280;5642;50.830;12.082;2023-08-24T05:36:52;99633.78;;;24.63;38.44
11172;BME280;5642;50.830;12.082;2023-08-24T05:39:19;99610.72;;;25.02;38.14
11172;BME280;5642;50.830;12.082;2023-08-24T05:41:45;99641.00;;;25.72;37.73
11172;BME280;5642;50.830;12.082;2023-08-24T05:44:13;99618.44;;;26.04;37.42
11172;BME280;5642;50.830;12.082;2023-08-24T05:46:46;99629.69;;;26.75;36.78
11172;BME280;5642;50.830;12.082;2023-08-24T05:49:12;99632.97;;;27.52;36.34
11172;BME280;5642;50.830;12.082;2023-08-24T05:51:39;99635.03;;;28.39;36.05
11172;BME280;5642;50.830;12.082;2023-08-24T05:54:15;99631.50;;;29.16;35.40
11172;BME280;5642;50.830;12.082;2023-08-24T05:56:48;99608.78;;;29.85;34.90
11172;BME280;5642;50.830;12.082;2023-08-24T05:59:16;99630.47;;;30.74;34.31
11172;BME280;5642;50.830;12.082;2023-08-24T06:01:44;99624.38;;;31.35;33.81
11172;BME280;5642;50.830;12.082;2023-08-24T06:04:12;99617.81;;;31.92;33.62
11172;BME280;5642;50.830;12.082;2023-08-24T06:06:40;99615.69;;;32.47;33.45
11172;BME280;5642;50.830;12.082;2023-08-24T06:09:08;99622.06;;;33.07;33.17
11172;BME280;5642;50.830;12.082;2023-08-24T06:11:35;99617.81;;;33.63;32.97
11172;BME280;5642;50.830;12.082;2023-08-24T06:14:10;99606.03;;;34.13;32.83
11172;BME280;5642;50.830;12.082;2023-08-24T06:16:40;99604.72;;;34.73;32.30
11172;BME280;5642;50.830;12.082;2023-08-24T06:19:06;99594.56;;;35.22;32.24
11172;BME280;5642;50.830;12.082;2023-08-24T06:21:34;99577.31;;;35.63;32.16
11172;BME280;5642;50.830;12.082;2023-08-24T06:24:12;99591.53;;;36.19;31.87
11172;BME280;5642;50.830;12.082;2023-08-24T06:26:39;99560.69;;;36.52;31.30
11172;BME280;5642;50.830;12.082;2023-08-24T06:29:05;99575.50;;;37.15;31.39
11172;BME280;5642;50.830;12.082;2023-08-24T06:31:34;99556.16;;;37.54;31.22
11172;BME280;5642;50.830;12.082;2023-08-24T06:34:01;99513.53;;;37.85;31.06
11172;BME280;5642;50.830;12.082;2023-08-24T06:36:32;99572.25;;;38.63;30.49
11172;BME280;5642;50.830;12.082;2023-08-24T06:38:59;99577.94;;;39.05;30.27
11172;BME280;5642;50.830;12.082;2023-08-24T06:41:25;99580.19;;;39.26;29.98
11172;BME280;5642;50.830;12.082;2023-08-24T06:43:52;99568.31;;;39.32;29.93
11172;BME280;5642;50.830;12.082;2023-08-24T06:46:22;99572.25;;;39.54;29.76
11172;BME280;5642;50.830;12.082;2023-08-24T06:48:52;99557.19;;;39.75;29.71
11172;BME280;5642;50.830;12.082;2023-08-24T06:51:18;99536.31;;;40.04;29.57
11172;BME280;5642;50.830;12.082;2023-08-24T06:53:51;99540.88;;;40.45;28.88
11172;BME280;5642;50.830;12.082;2023-08-24T06:56:22;99587.09;;;41.06;28.87
11172;BME280;5642;50.830;12.082;2023-08-24T06:58:48;99558.25;;;41.32;28.51
11172;BME280;5642;50.830;12.082;2023-08-24T07:01:14;99561.94;;;41.66;28.78
11172;BME280;5642;50.830;12.082;2023-08-24T07:03:42;99554.19;;;41.92;28.12
11172;BME280;5642;50.830;12.082;2023-08-24T07:06:10;99585.84;;;42.56;27.81
11172;BME280;5642;50.830;12.082;2023-08-24T07:08:42;99589.22;;;42.96;27.83
11172;BME280;5642;50.830;12.082;2023-08-24T07:11:13;99593.03;;;43.34;27.30
11172;BME280;5642;50.830;12.082;2023-08-24T07:13:43;99590.72;;;43.69;27.16
11172;BME280;5642;50.830;12.082;2023-08-24T07:16:10;99576.59;;;43.93;27.19
11172;BME280;5642;50.830;12.082;2023-08-24T07:18:40;99575.88;;;44.34;26.69
11172;BME280;5642;50.830;12.082;2023-08-24T07:21:13;99552.78;;;44.45;26.54
11172;BME280;5642;50.830;12.082;2023-08-24T07:23:40;99551.59;;;44.73;26.46
11172;BME280;5642;50.830;12.082;2023-08-24T07:26:08;99555.88;;;45.01;26.00
11172;BME280;5642;50.830;12.082;2023-08-24T07:28:36;99538.03;;;45.19;25.84
11172;BME280;5642;50.830;12.082;2023-08-24T07:31:09;99573.28;;;45.64;25.87
11172;BME280;5642;50.830;12.082;2023-08-24T07:33:40;99573.59;;;45.78;25.47
11172;BME280;5642;50.830;12.082;2023-08-24T07:36:13;99577.25;;;45.88;25.76
11172;BME280;5642;50.830;12.082;2023-08-24T07:38:41;99542.34;;;45.82;25.32
11172;BME280;5642;50.830;12.082;2023-08-24T07:41:12;99563.69;;;46.17;25.69
11172;BME280;5642;50.830;12.082;2023-08-24T07:43:39;99561.72;;;46.48;25.20
11172;BME280;5642;50.830;12.082;2023-08-24T07:46:05;99553.09;;;46.80;24.67
11172;BME280;5642;50.830;12.082;2023-08-24T07:48:32;99556.63;;;47.11;24.77
11172;BME280;5642;50.830;12.082;2023-08-24T07:51:02;99569.72;;;47.55;24.50
11172;BME280;5642;50.830;12.082;2023-08-24T07:53:31;99569.28;;;47.86;24.28
11172;BME280;5642;50.830;12.082;2023-08-24T07:56:01;99566.22;;;48.22;24.05
11172;BME280;5642;50.830;12.082;2023-08-24T07:58:49;99575.03;;;48.63;23.86
11172;BME280;5642;50.830;12.082;2023-08-24T08:01:21;99564.63;;;48.97;23.54
11172;BME280;5642;50.830;12.082;2023-08-24T08:03:52;99567.38;;;49.26;22.97
11172;BME280;5642;50.830;12.082;2023-08-24T08:06:20;99542.72;;;49.38;23.19
11172;BME280;5642;50.830;12.082;2023-08-24T08:08:48;99559.28;;;49.67;22.77
11172;BME280;5642;50.830;12.082;2023-08-24T08:11:25;99563.56;;;49.97;23.18
11172;BME280;5642;50.830;12.082;2023-08-24T08:13:56;99572.28;;;50.28;22.36
11172;BME280;5642;50.830;12.082;2023-08-24T08:16:22;99562.75;;;50.62;22.61
11172;BME280;5642;50.830;12.082;2023-08-24T08:18:49;99553.94;;;50.87;21.90
11172;BME280;5642;50.830;12.082;2023-08-24T08:21:17;99522.19;;;50.97;21.78
11172;BME280;5642;50.830;12.082;2023-08-24T08:23:49;99521.03;;;51.25;22.00
11172;BME280;5642;50.830;12.082;2023-08-24T08:26:16;99518.50;;;51.51;21.45
11172;BME280;5642;50.830;12.082;2023-08-24T08:28:52;99542.31;;;51.71;21.53
11172;BME280;5642;50.830;12.082;2023-08-24T08:31:21;99516.00;;;51.85;21.41
11172;BME280;5642;50.830;12.082;2023-08-24T08:34:00;99557.00;;;52.43;20.81
11172;BME280;5642;50.830;12.082;2023-08-24T08:36:31;99549.41;;;52.74;21.13
11172;BME280;5642;50.830;12.082;2023-08-24T08:39:03;99528.28;;;52.91;21.02
11172;BME280;5642;50.830;12.082;2023-08-24T08:41:43;99493.09;;;52.59;20.46
11172;BME280;5642;50.830;12.082;2023-08-24T08:44:18;99535.72;;;52.11;21.05
11172;BME280;5642;50.830;12.082;2023-08-24T08:46:50;99525.13;;;51.77;20.80
11172;BME280;5642;50.830;12.082;2023-08-24T08:49:29;99497.78;;;51.29;21.17
11172;BME280;5642;50.830;12.082;2023-08-24T08:51:56;99517.63;;;51.14;20.96
11172;BME280;5642;50.830;12.082;2023-08-24T08:54:35;99510.81;;;50.66;21.24
11172;BME280;5642;50.830;12.082;2023-08-24T08:57:01;99515.41;;;50.29;21.24
11172;BME280;5642;50.830;12.082;2023-08-24T08:59:31;99520.88;;;49.27;21.40
11172;BME280;5642;50.830;12.082;2023-08-24T09:01:58;99520.88;;;48.32;21.78
11172;BME280;5642;50.830;12.082;2023-08-24T09:04:32;99509.50;;;47.55;21.79
11172;BME280;5642;50.830;12.082;2023-08-24T09:06:59;99506.47;;;47.02;22.09
11172;BME280;5642;50.830;12.082;2023-08-24T09:09:39;99486.69;;;46.40;21.68
11172;BME280;5642;50.830;12.082;2023-08-24T09:12:10;99510.81;;;46.04;22.37
11172;BME280;5642;50.830;12.082;2023-08-24T09:14:38;99478.03;;;45.35;22.28
11172;BME280;5642;50.830;12.082;2023-08-24T09:17:09;99495.13;;;45.11;21.97
11172;BME280;5642;50.830;12.082;2023-08-24T09:19:36;99508.03;;;44.91;22.00
11172;BME280;5642;50.830;12.082;2023-08-24T09:22:04;99462.94;;;44.33;21.89
11172;BME280;5642;50.830;12.082;2023-08-24T09:24:32;99492.09;;;44.19;22.37
11172;BME280;5642;50.830;12.082;2023-08-24T09:27:15;99494.91;;;43.65;22.33
11172;BME280;5642;50.830;12.082;2023-08-24T09:29:47;99499.63;;;43.16;22.47
11172;BME280;5642;50.830;12.082;2023-08-24T09:32:24;99481.63;;;42.48;22.71
11172;BME280;5642;50.830;12.082;2023-08-24T09:34:54;99456.59;;;41.66;22.75
11172;BME280;5642;50.830;12.082;2023-08-24T09:37:45;99480.72;;;41.07;23.36
11172;BME280;5642;50.830;12.082;2023-08-24T09:40:25;99438.97;;;40.30;23.52
11172;BME280;5642;50.830;12.082;2023-08-24T09:43:01;99471.66;;;39.97;23.69
11172;BME280;5642;50.830;12.082;2023-08-24T09:45:53;99460.25;;;39.28;23.80
11172;BME280;5642;50.830;12.082;2023-08-24T09:48:24;99465.09;;;38.78;23.92
11172;BME280;5642;50.830;12.082;2023-08-24T09:50:52;99472.66;;;38.39;24.09
11172;BME280;5642;50.830;12.082;2023-08-24T09:53:23;99479.38;;;37.94;24.66
11172;BME280;5642;50.830;12.082;2023-08-24T09:56:01;99456.88;;;37.36;24.68
11172;BME280;5642;50.830;12.082;2023-08-24T09:58:35;99478.28;;;36.94;24.86
11172;BME280;5642;50.830;12.082;2023-08-24T10:01:08;99487.81;;;36.72;25.26
11172;BME280;5642;50.830;12.082;2023-08-24T10:03:44;99473.59;;;36.37;24.93
11172;BME280;5642;50.830;12.082;2023-08-24T10:06:23;99463.97;;;36.01;25.21
11172;BME280;5642;50.830;12.082;2023-08-24T10:09:02;99455.09;;;35.60;25.30
11172;BME280;5642;50.830;12.082;2023-08-24T10:11:43;99420.25;;;35.09;25.22
11172;BME280;5642;50.830;12.082;2023-08-24T10:14:31;99408.19;;;34.77;25.68
11172;BME280;5642;50.830;12.082;2023-08-24T10:17:02;99397.75;;;34.46;25.91
11172;BME280;5642;50.830;12.082;2023-08-24T10:19:51;99354.88;;;34.07;26.01
11172;BME280;5642;50.830;12.082;2023-08-24T10:22:37;99350.41;;;33.93;26.41
11172;BME280;5642;50.830;12.082;2023-08-24T10:25:04;99370.38;;;33.79;26.50
11172;BME280;5642;50.830;12.082;2023-08-24T10:27:39;99370.38;;;33.58;26.38
11172;BME280;5642;50.830;12.082;2023-08-24T10:30:12;99309.53;;;33.03;26.45
11172;BME280;5642;50.830;12.082;2023-08-24T10:32:55;99353.47;;;33.13;26.99
11172;BME280;5642;50.830;12.082;2023-08-24T10:35:35;99316.25;;;32.86;26.64
11172;BME280;5642;50.830;12.082;2023-08-24T10:38:26;99365.19;;;33.35;27.02
11172;BME280;5642;50.830;12.082;2023-08-24T10:41:03;99368.50;;;33.58;27.12
11172;BME280;5642;50.830;12.082;2023-08-24T10:43:36;99368.25;;;33.74;26.48
11172;BME280;5642;50.830;12.082;2023-08-24T10:46:19;99367.66;;;33.79;26.41
11172;BME280;5642;50.830;12.082;2023-08-24T10:49:04;99361.75;;;33.75;26.25
11172;BME280;5642;50.830;12.082;2023-08-24T10:51:48;99361.34;;;33.51;26.56
11172;BME280;5642;50.830;12.082;2023-08-24T10:54:14;99372.47;;;33.34;26.40
11172;BME280;5642;50.830;12.082;2023-08-24T10:57:08;99328.59;;;32.88;26.16
11172;BME280;5642;50.830;12.082;2023-08-24T11:00:19;99387.53;;;33.16;26.26
11172;BME280;5642;50.830;12.082;2023-08-24T11:02:55;99367.38;;;33.03;26.71
11172;BME280;5642;50.830;12.082;2023-08-24T11:05:30;99377.88;;;33.13;26.55
11172;BME280;5642;50.830;12.082;2023-08-24T11:08:05;99368.28;;;33.11;27.01
11172;BME280;5642;50.830;12.082;2023-08-24T11:13:14;99360.19;;;32.96;26.94
11172;BME280;5642;50.830;12.082;2023-08-24T11:16:06;99345.25;;;32.85;26.98
11172;BME280;5642;50.830;12.082;2023-08-24T11:19:00;99336.63;;;32.96;27.00
11172;BME280;5642;50.830;12.082;2023-08-24T11:21:31;99338.25;;;33.19;27.05
11172;BME280;5642;50.830;12.082;2023-08-24T11:24:20;99323.72;;;33.75;27.52
11172;BME280;5642;50.830;12.082;2023-08-24T11:26:57;99330.13;;;34.78;27.58
11172;BME280;5642;50.830;12.082;2023-08-24T11:29:36;99329.78;;;35.86;27.86
11172;BME280;5642;50.830;12.082;2023-08-24T11:32:03;99322.22;;;36.53;27.38
11172;BME280;5642;50.830;12.082;2023-08-24T11:34:34;99310.38;;;36.78;26.84
11172;BME280;5642;50.830;12.082;2023-08-24T11:37:18;99330.56;;;37.02;26.64
11172;BME280;5642;50.830;12.082;2023-08-24T11:39:46;99315.00;;;37.03;26.21
11172;BME280;5642;50.830;12.082;2023-08-24T11:42:14;99302.88;;;36.99;26.20
11172;BME280;5642;50.830;12.082;2023-08-24T11:44:49;99322.34;;;37.09;25.82
11172;BME280;5642;50.830;12.082;2023-08-24T11:47:21;99321.47;;;37.15;26.00
11172;BME280;5642;50.830;12.082;2023-08-24T11:49:52;99310.34;;;37.10;25.86
11172;BME280;5642;50.830;12.082;2023-08-24T11:52:21;99299.03;;;37.06;25.77
11172;BME280;5642;50.830;12.082;2023-08-24T11:55:08;99296.78;;;36.97;25.63
11172;BME280;5642;50.830;12.082;2023-08-24T11:57:36;99270.47;;;36.77;25.48
11172;BME280;5642;50.830;12.082;2023-08-24T12:00:11;99304.34;;;37.01;25.46
11172;BME280;5642;50.830;12.082;2023-08-24T12:02:45;99321.50;;;37.08;25.78
11172;BME280;5642;50.830;12.082;2023-08-24T12:05:25;99316.44;;;37.12;25.48
11172;BME280;5642;50.830;12.082;2023-08-24T12:07:56;99310.09;;;37.18;25.61
11172;BME280;5642;50.830;12.082;2023-08-24T12:10:24;99300.63;;;37.20;25.33
11172;BME280;5642;50.830;12.082;2023-08-24T12:13:06;99300.41;;;37.22;25.32
11172;BME280;5642;50.830;12.082;2023-08-24T12:15:37;99301.75;;;37.13;25.15
11172;BME280;5642;50.830;12.082;2023-08-24T12:18:13;99307.38;;;37.18;25.07
11172;BME280;5642;50.830;12.082;2023-08-24T12:20:49;99304.22;;;37.21;24.91
11172;BME280;5642;50.830;12.082;2023-08-24T12:23:17;99303.31;;;37.27;25.41
11172;BME280;5642;50.830;12.082;2023-08-24T12:25:53;99282.97;;;37.23;24.98
11172;BME280;5642;50.830;12.082;2023-08-24T12:28:36;99295.94;;;37.28;25.17
11172;BME280;5642;50.830;12.082;2023-08-24T12:31:04;99238.84;;;36.95;25.16
11172;BME280;5642;50.830;12.082;2023-08-24T12:33:34;99294.44;;;37.32;24.97
11172;BME280;5642;50.830;12.082;2023-08-24T12:36:04;99224.63;;;36.86;25.09
11172;BME280;5642;50.830;12.082;2023-08-24T12:38:41;99217.44;;;36.92;25.01
11172;BME280;5642;50.830;12.082;2023-08-24T12:41:09;99229.53;;;37.02;25.02
11172;BME280;5642;50.830;12.082;2023-08-24T12:43:36;99261.19;;;37.10;24.38
11172;BME280;5642;50.830;12.082;2023-08-24T12:46:09;99262.34;;;36.96;24.80
11172;BME280;5642;50.830;12.082;2023-08-24T12:48:36;99256.06;;;36.64;25.39
11172;BME280;5642;50.830;12.082;2023-08-24T12:51:06;99194.44;;;36.05;24.81
11172;BME280;5642;50.830;12.082;2023-08-24T12:53:32;99174.28;;;35.61;25.06
11172;BME280;5642;50.830;12.082;2023-08-24T12:56:00;99227.72;;;35.62;25.22
11172;BME280;5642;50.830;12.082;2023-08-24T12:58:27;99190.72;;;35.15;25.03
11172;BME280;5642;50.830;12.082;2023-08-24T13:00:57;99168.94;;;34.76;25.52
11172;BME280;5642;50.830;12.082;2023-08-24T13:03:26;99164.31;;;34.43;25.57
11172;BME280;5642;50.830;12.082;2023-08-24T13:06:00;99183.53;;;34.35;25.68
11172;BME280;5642;50.830;12.082;2023-08-24T13:08:30;99156.84;;;34.04;25.64
11172;BME280;5642;50.830;12.082;2023-08-24T13:10:58;99172.53;;;33.96;25.59
11172;BME280;5642;50.830;12.082;2023-08-24T13:13:25;99200.34;;;34.04;25.83
11172;BME280;5642;50.830;12.082;2023-08-24T13:15:51;99196.97;;;33.89;25.65
11172;BME280;5642;50.830;12.082;2023-08-24T13:18:39;99156.84;;;33.50;26.00
11172;BME280;5642;50.830;12.082;2023-08-24T13:21:05;99153.00;;;33.31;25.57
11172;BME280;5642;50.830;12.082;2023-08-24T13:23:31;99195.03;;;33.49;25.81